createdAt,value
2022-10-22T00:01:40.571Z,96042.09
2022-10-22T00:04:08.859Z,96038.03
2022-10-22T00:06:37.090Z,96042.41
2022-10-22T00:09:05.768Z,96040.84
2022-10-22T00:11:34.060Z,96034.63
2022-10-22T00:14:02.321Z,96032.19
2022-10-22T00:16:31.956Z,96027.16
2022-10-22T00:19:00.236Z,96019.06
2022-10-22T00:21:29.205Z,96031.25
2022-10-22T00:23:57.695Z,96043.19
2022-10-22T00:26:25.930Z,96048.13
2022-10-22T00:28:54.447Z,96042.53
2022-10-22T00:31:22.940Z,96050.19
2022-10-22T00:33:52.523Z,96040.41
2022-10-22T00:36:20.745Z,96022.78
2022-10-22T00:38:49.028Z,96019.19
2022-10-22T00:41:17.326Z,96033.19
2022-10-22T00:43:57.105Z,96044.97
2022-10-22T00:46:25.409Z,96054.34
2022-10-22T00:48:56.299Z,96058.34
2022-10-22T00:51:26.935Z,96071.13
2022-10-22T00:53:58.141Z,96064.25
2022-10-22T00:56:27.018Z,96084.06
2022-10-22T00:58:58.534Z,96096.50
2022-10-22T01:01:29.221Z,96113.50
2022-10-22T01:03:58.850Z,96115.34
2022-10-22T01:06:28.907Z,96119.56
2022-10-22T01:09:10.308Z,96112.28
2022-10-22T01:11:48.105Z,96099.81
2022-10-22T01:14:21.521Z,96089.28
2022-10-22T01:16:55.415Z,96088.34
2022-10-22T01:19:37.966Z,96088.44
2022-10-22T01:22:10.584Z,96081.88
2022-10-22T01:24:46.527Z,96079.50
2022-10-22T01:27:23.199Z,96069.31
2022-10-22T01:29:54.042Z,96064.28
2022-10-22T01:32:24.291Z,96061.97
2022-10-22T01:34:56.567Z,96058.59
2022-10-22T01:37:28.051Z,96058.41
2022-10-22T01:39:57.421Z,96063.78
2022-10-22T01:42:25.831Z,96058.09
2022-10-22T01:44:55.406Z,96065.56
2022-10-22T01:47:32.151Z,96078.75
2022-10-22T01:50:18.175Z,96074.78
2022-10-22T01:52:58.158Z,96076.22
2022-10-22T01:55:30.666Z,96092.72
2022-10-22T01:58:07.822Z,96084.78
2022-10-22T02:00:41.456Z,96093.75
2022-10-22T02:03:13.189Z,96095.75
2022-10-22T02:05:45.641Z,96088.69
2022-10-22T02:08:17.246Z,96087.09
2022-10-22T02:10:47.966Z,96078.13
2022-10-22T02:13:19.959Z,96073.50
2022-10-22T02:15:51.905Z,96082.59
2022-10-22T02:18:21.471Z,96094.72
2022-10-22T02:20:51.031Z,96097.22
2022-10-22T02:23:19.247Z,96112.31
2022-10-22T02:25:51.075Z,96121.28
2022-10-22T02:28:25.014Z,96122.94
2022-10-22T02:30:56.672Z,96125.56
2022-10-22T02:33:28.197Z,96127.53
2022-10-22T02:35:57.214Z,96132.25
2022-10-22T02:38:26.728Z,96140.34
2022-10-22T02:40:55.103Z,96145.28
2022-10-22T02:43:25.384Z,96141.00
2022-10-22T02:45:54.952Z,96141.19
2022-10-22T02:48:23.181Z,96143.53
2022-10-22T02:50:51.376Z,96138.94
2022-10-22T02:53:19.629Z,96154.16
2022-10-22T02:55:47.889Z,96154.88
2022-10-22T02:58:16.128Z,96151.13
2022-10-22T03:00:44.477Z,96152.22
2022-10-22T03:03:14.022Z,96152.53
2022-10-22T03:05:42.197Z,96149.50
2022-10-22T03:08:10.467Z,96148.94
2022-10-22T03:10:38.716Z,96158.88
2022-10-22T03:13:06.931Z,96155.97
2022-10-22T03:15:35.458Z,96146.38
2022-10-22T03:18:03.717Z,96145.56
2022-10-22T03:20:33.337Z,96139.88
2022-10-22T03:23:02.179Z,96134.63
2022-10-22T03:25:31.109Z,96133.47
2022-10-22T03:28:02.868Z,96133.38
2022-10-22T03:30:31.049Z,96139.91
2022-10-22T03:32:59.236Z,96148.09
2022-10-22T03:35:27.565Z,96137.00
2022-10-22T03:37:57.106Z,96134.03
2022-10-22T03:40:26.492Z,96140.97
2022-10-22T03:42:54.751Z,96148.09
2022-10-22T03:45:22.942Z,96146.88
2022-10-22T03:47:51.201Z,96151.13
2022-10-22T03:50:19.543Z,96154.78
2022-10-22T03:52:47.720Z,96159.22
2022-10-22T03:55:17.488Z,96162.47
2022-10-22T03:57:45.663Z,96178.56
2022-10-22T04:00:14.080Z,96188.94
2022-10-22T04:02:42.334Z,96189.03
2022-10-22T04:05:10.808Z,96194.66
2022-10-22T04:07:39.334Z,96191.38
2022-10-22T04:10:08.388Z,96179.75
2022-10-22T04:12:37.927Z,96190.09
2022-10-22T04:15:06.981Z,96185.56
2022-10-22T04:17:35.850Z,96187.72
2022-10-22T04:20:05.687Z,96199.44
2022-10-22T04:22:35.072Z,96203.94
2022-10-22T04:25:03.327Z,96196.13
2022-10-22T04:27:32.322Z,96188.66
2022-10-22T04:30:02.077Z,96185.94
2022-10-22T04:32:30.665Z,96189.00
2022-10-22T04:34:58.966Z,96193.31
2022-10-22T04:37:27.453Z,96187.59
2022-10-22T04:39:58.070Z,96196.56
2022-10-22T04:42:26.716Z,96195.16
2022-10-22T04:44:55.041Z,96193.34
2022-10-22T04:47:24.700Z,96195.34
2022-10-22T04:49:52.928Z,96191.38
2022-10-22T04:52:21.360Z,96190.50
2022-10-22T04:54:49.560Z,96189.41
2022-10-22T04:57:17.743Z,96189.06
2022-10-22T04:59:45.972Z,96199.47
2022-10-22T05:02:14.279Z,96201.75
2022-10-22T05:04:44.952Z,96200.81
2022-10-22T05:07:13.122Z,96208.19
2022-10-22T05:09:41.336Z,96209.19
2022-10-22T05:12:09.544Z,96211.72
2022-10-22T05:14:41.293Z,96206.13
2022-10-22T05:17:11.022Z,96215.22
2022-10-22T05:19:39.421Z,96216.13
2022-10-22T05:22:08.960Z,96213.91
2022-10-22T05:24:37.996Z,96222.22
2022-10-22T05:27:06.340Z,96221.13
2022-10-22T05:29:34.609Z,96212.56
2022-10-22T05:32:02.862Z,96209.19
2022-10-22T05:34:31.661Z,96211.13
2022-10-22T05:36:59.825Z,96215.25
2022-10-22T05:39:29.507Z,96210.53
2022-10-22T05:41:58.483Z,96219.09
2022-10-22T05:44:26.654Z,96233.53
2022-10-22T05:46:54.893Z,96239.13
2022-10-22T05:49:23.172Z,96240.94
2022-10-22T05:51:51.378Z,96246.66
2022-10-22T05:54:22.103Z,96238.66
2022-10-22T05:56:51.641Z,96240.47
2022-10-22T05:59:20.430Z,96237.94
2022-10-22T06:01:48.674Z,96237.69
2022-10-22T06:04:17.977Z,96240.63
2022-10-22T06:06:47.426Z,96236.63
2022-10-22T06:09:18.664Z,96236.75
2022-10-22T06:11:47.861Z,96235.69
2022-10-22T06:16:45.854Z,96246.88
2022-10-22T06:19:15.209Z,96250.13
2022-10-22T06:21:43.690Z,96252.44
2022-10-22T06:24:12.395Z,96251.38
2022-10-22T06:26:40.976Z,96245.94
2022-10-22T06:29:09.543Z,96239.66
2022-10-22T06:31:39.167Z,96263.31
2022-10-22T06:34:09.279Z,96275.41
2022-10-22T06:36:37.600Z,96259.56
2022-10-22T06:39:06.440Z,96259.22
2022-10-22T06:41:34.764Z,96260.63
2022-10-22T06:44:02.975Z,96258.03
2022-10-22T06:46:31.821Z,96268.03
2022-10-22T06:49:03.030Z,96275.69
2022-10-22T06:51:31.364Z,96276.44
2022-10-22T06:54:00.100Z,96277.31
2022-10-22T06:56:29.766Z,96284.03
2022-10-22T06:58:59.338Z,96288.69
2022-10-22T07:01:30.116Z,96299.06
2022-10-22T07:03:58.444Z,96303.91
2022-10-22T07:06:29.621Z,96301.50
2022-10-22T07:08:59.698Z,96313.88
2022-10-22T07:11:29.421Z,96323.72
2022-10-22T07:13:59.057Z,96341.47
2022-10-22T07:16:31.095Z,96356.88
2022-10-22T07:19:00.706Z,96358.38
2022-10-22T07:21:30.878Z,96363.97
2022-10-22T07:24:00.115Z,96369.56
2022-10-22T07:26:30.875Z,96376.31
2022-10-22T07:28:59.646Z,96374.94
2022-10-22T07:31:27.965Z,96379.88
2022-10-22T07:33:56.153Z,96387.06
2022-10-22T07:36:24.349Z,96387.69
2022-10-22T07:38:57.338Z,96389.03
2022-10-22T07:41:25.726Z,96392.00
2022-10-22T07:43:54.029Z,96394.25
2022-10-22T07:46:22.683Z,96391.81
2022-10-22T07:48:51.042Z,96396.69
2022-10-22T07:51:19.322Z,96402.88
2022-10-22T07:53:47.516Z,96398.19
2022-10-22T07:56:17.748Z,96402.44
2022-10-22T07:58:46.116Z,96413.28
2022-10-22T08:01:14.343Z,96407.72
2022-10-22T08:03:42.519Z,96398.25
2022-10-22T08:06:11.188Z,96404.56
2022-10-22T08:08:39.389Z,96414.22
2022-10-22T08:11:07.584Z,96417.78
2022-10-22T08:13:39.463Z,96418.97
2022-10-22T08:16:09.776Z,96421.50
2022-10-22T08:18:38.586Z,96427.31
2022-10-22T08:21:07.102Z,96426.50
2022-10-22T08:23:35.461Z,96420.16
2022-10-22T08:26:03.979Z,96419.41
2022-10-22T08:28:35.974Z,96420.56
2022-10-22T08:31:05.808Z,96430.59
2022-10-22T08:33:33.986Z,96438.28
2022-10-22T08:36:02.274Z,96444.47
2022-10-22T08:38:31.332Z,96451.72
2022-10-22T08:41:07.503Z,96441.03
2022-10-22T08:43:56.337Z,96442.84
2022-10-22T08:46:35.257Z,96447.97
2022-10-22T08:49:06.862Z,96452.50
2022-10-22T08:51:40.331Z,96453.53
2022-10-22T08:54:18.288Z,96448.69
2022-10-22T08:56:53.544Z,96449.50
2022-10-22T08:59:25.395Z,96462.00
2022-10-22T09:01:55.243Z,96466.22
2022-10-22T09:04:28.033Z,96473.59
2022-10-22T09:06:57.297Z,96466.13
2022-10-22T09:09:27.751Z,96458.66
2022-10-22T09:11:55.889Z,96475.53
2022-10-22T09:14:25.331Z,96475.38
2022-10-22T09:17:17.860Z,96478.06
2022-10-22T09:19:55.026Z,96485.25
2022-10-22T09:22:32.431Z,96506.09
2022-10-22T09:25:03.855Z,96492.16
2022-10-22T09:27:32.776Z,96490.25
2022-10-22T09:30:02.277Z,96499.03
2022-10-22T09:32:33.381Z,96497.16
2022-10-22T09:35:01.774Z,96504.81
2022-10-22T09:37:31.090Z,96488.97
2022-10-22T09:40:05.733Z,96483.06
2022-10-22T09:42:35.003Z,96494.81
2022-10-22T09:45:03.265Z,96506.63
2022-10-22T09:47:43.326Z,96499.00
2022-10-22T09:50:14.605Z,96501.13
2022-10-22T09:52:43.177Z,96509.63
2022-10-22T09:55:15.173Z,96506.13
2022-10-22T09:57:44.475Z,96517.84
2022-10-22T10:00:19.633Z,96514.47
2022-10-22T10:02:49.382Z,96510.72
2022-10-22T10:05:21.663Z,96507.44
2022-10-22T10:07:49.841Z,96510.44
2022-10-22T10:10:20.927Z,96505.06
2022-10-22T10:12:56.406Z,96507.69
2022-10-22T10:15:29.255Z,96495.06
2022-10-22T10:18:06.315Z,96492.06
2022-10-22T10:20:41.914Z,96502.03
2022-10-22T10:23:16.499Z,96500.38
2022-10-22T10:25:50.346Z,96499.63
2022-10-22T10:28:40.499Z,96494.19
2022-10-22T10:31:20.680Z,96483.97
2022-10-22T10:33:56.062Z,96488.13
2022-10-22T10:36:29.908Z,96501.81
2022-10-22T10:39:01.216Z,96492.34
2022-10-22T10:41:38.848Z,96489.88
2022-10-22T10:44:20.911Z,96486.41
2022-10-22T10:46:54.044Z,96485.72
2022-10-22T10:49:26.318Z,96485.00
2022-10-22T10:51:59.534Z,96487.03
2022-10-22T10:54:35.400Z,96495.25
2022-10-22T10:57:07.895Z,96483.63
2022-10-22T10:59:46.679Z,96496.84
2022-10-22T11:02:38.463Z,96490.50
2022-10-22T11:05:39.765Z,96501.75
2022-10-22T11:08:14.863Z,96486.75
2022-10-22T11:10:46.816Z,96490.38
2022-10-22T11:13:22.427Z,96483.59
2022-10-22T11:15:55.453Z,96477.63
2022-10-22T11:18:28.339Z,96480.13
2022-10-22T11:21:10.177Z,96475.94
2022-10-22T11:23:42.561Z,96476.44
2022-10-22T11:26:15.251Z,96473.41
2022-10-22T11:28:46.637Z,96475.63
2022-10-22T11:31:17.215Z,96471.09
2022-10-22T11:33:57.353Z,96478.03
2022-10-22T11:36:35.356Z,96479.78
2022-10-22T11:39:04.921Z,96481.50
2022-10-22T11:41:34.488Z,96471.19
2022-10-22T11:44:14.542Z,96471.88
2022-10-22T11:46:47.701Z,96475.44
2022-10-22T11:49:25.165Z,96470.16
2022-10-22T11:52:07.575Z,96481.50
2022-10-22T11:54:45.260Z,96474.88
2022-10-22T11:57:22.571Z,96472.47
2022-10-22T12:00:03.370Z,96464.47
2022-10-22T12:02:45.238Z,96464.63
2022-10-22T12:05:44.103Z,96467.06
2022-10-22T12:08:27.136Z,96466.25
2022-10-22T12:11:04.361Z,96466.81
2022-10-22T12:13:34.939Z,96462.75
2022-10-22T12:16:05.327Z,96468.03
2022-10-22T12:18:35.725Z,96467.56
2022-10-22T12:21:03.921Z,96459.94
2022-10-22T12:23:35.873Z,96454.06
2022-10-22T12:26:05.165Z,96463.69
2022-10-22T12:28:40.376Z,96458.84
2022-10-22T12:31:16.423Z,96447.00
2022-10-22T12:33:45.173Z,96447.34
2022-10-22T12:36:17.859Z,96436.72
2022-10-22T12:38:48.424Z,96446.06
2022-10-22T12:41:16.765Z,96454.66
2022-10-22T12:43:45.460Z,96446.25
2022-10-22T12:46:14.541Z,96440.34
2022-10-22T12:48:44.915Z,96442.69
2022-10-22T12:51:15.161Z,96439.41
2022-10-22T12:53:46.953Z,96429.31
2022-10-22T12:56:19.579Z,96448.53
2022-10-22T12:58:50.268Z,96437.25
2022-10-22T13:01:19.439Z,96436.00
2022-10-22T13:03:49.910Z,96438.22
2022-10-22T13:06:24.901Z,96434.44
2022-10-22T13:09:08.891Z,96431.13
2022-10-22T13:11:42.521Z,96427.03
2022-10-22T13:14:21.604Z,96431.19
2022-10-22T13:17:07.618Z,96428.03
2022-10-22T13:19:48.000Z,96415.53
2022-10-22T13:22:39.835Z,96419.88
2022-10-22T13:25:24.165Z,96421.94
2022-10-22T13:27:56.139Z,96426.94
2022-10-22T13:30:25.971Z,96420.16
2022-10-22T13:32:56.203Z,96422.56
2022-10-22T13:35:26.128Z,96422.06
2022-10-22T13:37:54.347Z,96432.44
2022-10-22T13:40:22.930Z,96433.63
2022-10-22T13:42:51.133Z,96429.66
2022-10-22T13:45:20.939Z,96428.38
2022-10-22T13:47:52.051Z,96429.25
2022-10-22T13:50:22.057Z,96428.50
2022-10-22T13:52:52.441Z,96428.47
2022-10-22T13:55:22.215Z,96428.84
2022-10-22T13:57:50.637Z,96431.44
2022-10-22T14:00:21.475Z,96433.50
2022-10-22T14:02:53.573Z,96432.88
2022-10-22T14:05:21.942Z,96428.66
2022-10-22T14:07:50.477Z,96433.91
2022-10-22T14:10:21.961Z,96434.16
2022-10-22T14:12:53.256Z,96426.06
2022-10-22T14:15:25.420Z,96432.69
2022-10-22T14:17:55.644Z,96434.69
2022-10-22T14:20:25.826Z,96436.41
2022-10-22T14:22:54.168Z,96441.97
2022-10-22T14:25:31.383Z,96434.81
2022-10-22T14:27:59.621Z,96441.94
2022-10-22T14:30:30.217Z,96432.00
2022-10-22T14:32:58.971Z,96440.28
2022-10-22T14:35:27.312Z,96439.69
2022-10-22T14:37:55.475Z,96444.72
2022-10-22T14:40:23.723Z,96452.19
2022-10-22T14:42:52.421Z,96445.78
2022-10-22T14:45:22.275Z,96447.22
2022-10-22T14:47:54.938Z,96441.78
2022-10-22T14:50:23.272Z,96452.47
2022-10-22T14:52:52.316Z,96452.38
2022-10-22T14:55:20.829Z,96456.03
2022-10-22T14:57:49.222Z,96458.84
2022-10-22T15:00:18.974Z,96456.75
2022-10-22T15:02:47.921Z,96449.22
2022-10-22T15:05:17.749Z,96454.78
2022-10-22T15:07:46.353Z,96463.19
2022-10-22T15:10:14.821Z,96473.50
2022-10-22T15:12:43.446Z,96464.56
2022-10-22T15:15:12.051Z,96466.97
2022-10-22T15:17:40.634Z,96466.97
2022-10-22T15:20:09.425Z,96473.91
2022-10-22T15:22:39.278Z,96474.59
2022-10-22T15:25:09.709Z,96478.59
2022-10-22T15:27:38.117Z,96470.56
2022-10-22T15:30:08.118Z,96480.00
2022-10-22T15:32:36.489Z,96485.00
2022-10-22T15:35:05.893Z,96473.47
2022-10-22T15:37:34.087Z,96475.66
2022-10-22T15:40:03.806Z,96480.81
2022-10-22T15:42:32.099Z,96486.66
2022-10-22T15:45:02.164Z,96489.00
2022-10-22T15:47:31.313Z,96484.44
2022-10-22T15:49:59.597Z,96489.59
2022-10-22T15:52:27.832Z,96492.53
2022-10-22T15:54:56.242Z,96495.00
2022-10-22T15:57:25.861Z,96502.25
2022-10-22T15:59:54.173Z,96504.97
2022-10-22T16:02:22.377Z,96499.69
2022-10-22T16:04:50.724Z,96506.50
2022-10-22T16:07:21.125Z,96513.50
2022-10-22T16:09:52.638Z,96510.44
2022-10-22T16:12:21.030Z,96505.75
2022-10-22T16:14:52.408Z,96508.13
2022-10-22T16:17:20.775Z,96498.53
2022-10-22T16:19:49.268Z,96506.50
2022-10-22T16:22:17.571Z,96518.47
2022-10-22T16:24:45.777Z,96521.88
2022-10-22T16:27:14.006Z,96520.09
2022-10-22T16:29:42.227Z,96518.31
2022-10-22T16:32:13.246Z,96521.81
2022-10-22T16:34:42.048Z,96511.78
2022-10-22T16:37:10.727Z,96515.97
2022-10-22T16:39:39.335Z,96526.75
2022-10-22T16:42:07.646Z,96535.06
2022-10-22T16:44:35.893Z,96536.00
2022-10-22T16:47:04.206Z,96533.88
2022-10-22T16:49:33.844Z,96535.69
2022-10-22T16:52:02.060Z,96542.34
2022-10-22T16:54:30.500Z,96549.84
2022-10-22T16:56:58.771Z,96551.72
2022-10-22T16:59:27.035Z,96559.19
2022-10-22T17:01:55.533Z,96556.34
2022-10-22T17:04:23.861Z,96567.16
2022-10-22T17:06:53.473Z,96569.03
2022-10-22T17:09:23.355Z,96566.78
2022-10-22T17:11:51.600Z,96564.09
2022-10-22T17:14:19.877Z,96563.38
2022-10-22T17:16:48.941Z,96562.56
2022-10-22T17:19:17.384Z,96564.22
2022-10-22T17:21:45.667Z,96570.53
2022-10-22T17:24:15.492Z,96572.97
2022-10-22T17:26:45.070Z,96585.94
2022-10-22T17:29:13.940Z,96586.22
2022-10-22T17:31:42.553Z,96589.81
2022-10-22T17:34:12.416Z,96588.81
2022-10-22T17:36:40.677Z,96587.72
2022-10-22T17:39:09.135Z,96585.63
2022-10-22T17:41:38.876Z,96587.88
2022-10-22T17:44:09.935Z,96588.47
2022-10-22T17:46:39.136Z,96587.03
2022-10-22T17:49:10.925Z,96599.22
2022-10-22T17:51:39.142Z,96597.78
2022-10-22T17:54:09.816Z,96603.38
2022-10-22T17:59:08.762Z,96609.56
2022-10-22T18:01:40.214Z,96611.84
2022-10-22T18:04:10.846Z,96611.94
2022-10-22T18:06:39.139Z,96605.06
2022-10-22T18:09:07.690Z,96615.56
2022-10-22T18:11:37.263Z,96625.75
2022-10-22T18:14:06.979Z,96620.53
2022-10-22T18:16:35.501Z,96617.44
2022-10-22T18:19:03.756Z,96617.44
2022-10-22T18:21:32.391Z,96620.28
2022-10-22T18:24:00.581Z,96623.19
2022-10-22T18:26:28.814Z,96614.22
2022-10-22T18:28:58.111Z,96610.19
2022-10-22T18:31:30.393Z,96619.69
2022-10-22T18:33:59.218Z,96618.06
2022-10-22T18:36:28.202Z,96618.38
2022-10-22T18:38:57.908Z,96613.78
2022-10-22T18:41:26.535Z,96618.34
2022-10-22T18:43:56.274Z,96617.59
2022-10-22T18:46:24.938Z,96615.53
2022-10-22T18:48:55.193Z,96617.00
2022-10-22T18:51:24.106Z,96617.81
2022-10-22T18:54:05.145Z,96616.38
2022-10-22T18:56:42.846Z,96611.41
2022-10-22T18:59:16.994Z,96619.69
2022-10-22T19:01:45.203Z,96619.44
2022-10-22T19:04:15.126Z,96619.47
2022-10-22T19:06:45.710Z,96619.78
2022-10-22T19:09:14.797Z,96613.47
2022-10-22T19:11:44.174Z,96613.09
2022-10-22T19:14:13.744Z,96615.34
2022-10-22T19:16:41.980Z,96618.03
2022-10-22T19:19:24.683Z,96610.59
2022-10-22T19:21:53.270Z,96604.00
2022-10-22T19:24:21.830Z,96612.88
2022-10-22T19:26:50.842Z,96607.31
2022-10-22T19:29:21.287Z,96611.00
2022-10-22T19:31:50.964Z,96606.25
2022-10-22T19:34:20.948Z,96600.50
2022-10-22T19:36:51.665Z,96604.41
2022-10-22T19:39:21.940Z,96604.81
2022-10-22T19:41:50.188Z,96598.47
2022-10-22T19:44:19.776Z,96598.47
2022-10-22T19:46:48.003Z,96606.50
2022-10-22T19:49:19.103Z,96610.53
2022-10-22T19:51:51.815Z,96611.13
2022-10-22T19:54:20.415Z,96608.56
2022-10-22T19:56:49.203Z,96604.66
2022-10-22T19:59:20.468Z,96603.63
2022-10-22T20:01:48.716Z,96610.84
2022-10-22T20:04:18.497Z,96611.50
2022-10-22T20:06:46.980Z,96624.53
2022-10-22T20:09:16.672Z,96610.66
2022-10-22T20:11:45.059Z,96613.50
2022-10-22T20:14:14.138Z,96617.59
2022-10-22T20:16:42.787Z,96612.66
2022-10-22T20:19:13.462Z,96618.00
2022-10-22T20:21:41.907Z,96614.22
2022-10-22T20:24:11.283Z,96615.16
2022-10-22T20:26:40.943Z,96621.88
2022-10-22T20:29:09.431Z,96613.94
2022-10-22T20:31:37.677Z,96625.88
2022-10-22T20:34:06.270Z,96620.16
2022-10-22T20:36:34.520Z,96634.34
2022-10-22T20:39:06.139Z,96635.78
2022-10-22T20:41:35.637Z,96636.44
2022-10-22T20:44:05.489Z,96639.59
2022-10-22T20:46:34.698Z,96635.22
2022-10-22T20:49:04.511Z,96634.53
2022-10-22T20:51:32.936Z,96637.69
2022-10-22T20:54:01.175Z,96641.94
2022-10-22T20:56:29.664Z,96644.56
2022-10-22T20:59:05.148Z,96650.19
2022-10-22T21:01:38.136Z,96649.63
2022-10-22T21:04:07.094Z,96648.94
2022-10-22T21:06:38.157Z,96635.72
2022-10-22T21:09:07.380Z,96640.44
2022-10-22T21:11:35.980Z,96643.97
2022-10-22T21:14:04.940Z,96639.88
2022-10-22T21:16:34.774Z,96628.47
2022-10-22T21:19:03.463Z,96636.16
2022-10-22T21:21:31.796Z,96635.94
2022-10-22T21:24:00.100Z,96633.44
2022-10-22T21:26:28.406Z,96639.81
2022-10-22T21:28:56.930Z,96630.25
2022-10-22T21:31:26.213Z,96634.41
2022-10-22T21:33:55.855Z,96637.44
2022-10-22T21:36:25.080Z,96635.09
2022-10-22T21:38:53.423Z,96629.13
2022-10-22T21:41:23.638Z,96628.06
2022-10-22T21:43:52.340Z,96625.16
2022-10-22T21:46:22.199Z,96631.47
2022-10-22T21:48:55.607Z,96622.78
2022-10-22T21:51:25.498Z,96621.75
2022-10-22T21:53:54.742Z,96625.75
2022-10-22T21:56:24.452Z,96627.66
2022-10-22T21:58:52.891Z,96625.81
2022-10-22T22:01:21.691Z,96626.13
2022-10-22T22:03:50.966Z,96631.72
2022-10-22T22:06:22.456Z,96626.66
2022-10-22T22:08:52.706Z,96619.31
2022-10-22T22:11:22.610Z,96628.81
2022-10-22T22:13:51.257Z,96619.38
2022-10-22T22:16:23.941Z,96620.84
2022-10-22T22:18:55.712Z,96617.78
2022-10-22T22:21:25.462Z,96614.50
2022-10-22T22:23:53.845Z,96611.84
2022-10-22T22:26:26.900Z,96611.09
2022-10-22T22:28:59.277Z,96604.38
2022-10-22T22:31:29.390Z,96602.34
2022-10-22T22:34:02.124Z,96600.69
2022-10-22T22:36:34.537Z,96613.25
2022-10-22T22:39:03.224Z,96611.44
2022-10-22T22:41:31.515Z,96612.47
2022-10-22T22:43:59.797Z,96609.78
2022-10-22T22:46:28.150Z,96609.50
2022-10-22T22:48:56.403Z,96607.41
2022-10-22T22:51:25.147Z,96612.19
2022-10-22T22:53:54.687Z,96605.13
2022-10-22T22:56:24.427Z,96606.22
2022-10-22T22:58:52.758Z,96598.06
2022-10-22T23:01:23.200Z,96582.50
2022-10-22T23:03:54.448Z,96586.13
2022-10-22T23:06:22.839Z,96592.88
2022-10-22T23:08:52.363Z,96591.16
2022-10-22T23:11:23.333Z,96590.44
2022-10-22T23:13:53.778Z,96591.34
2022-10-22T23:16:24.041Z,96589.03
2022-10-22T23:18:53.674Z,96590.75
2022-10-22T23:21:23.766Z,96590.72
2022-10-22T23:23:53.719Z,96583.25
2022-10-22T23:26:25.142Z,96576.06
2022-10-22T23:28:53.366Z,96574.41
2022-10-22T23:31:22.129Z,96562.88
2022-10-22T23:33:50.875Z,96560.94
2022-10-22T23:36:19.099Z,96563.53
2022-10-22T23:38:47.462Z,96570.13
2022-10-22T23:41:15.724Z,96561.97
2022-10-22T23:43:45.346Z,96557.59
2022-10-22T23:46:14.255Z,96558.34
2022-10-22T23:48:42.619Z,96547.91
2022-10-22T23:51:13.101Z,96558.50
2022-10-22T23:53:42.534Z,96562.81
2022-10-22T23:56:13.795Z,96553.22
2022-10-22T23:58:42.587Z,96554.31
